createdAt,value
2018-12-09T00:00:06.599Z,1.00
2018-12-09T00:05:11.031Z,0.87
2018-12-09T00:10:15.507Z,1.00
2018-12-09T00:15:20.054Z,1.23
2018-12-09T00:20:24.631Z,0.97
2018-12-09T00:25:29.121Z,1.10
2018-12-09T00:30:33.870Z,0.80
2018-12-09T00:35:38.869Z,0.80
2018-12-09T00:38:08.466Z,0.30
2018-12-09T00:40:37.831Z,0.47
2018-12-09T00:43:07.291Z,0.10
2018-12-09T00:48:11.992Z,0.00
2018-12-09T00:50:41.541Z,0.10
2018-12-09T00:53:11.004Z,0.10
2018-12-09T00:55:40.770Z,0.10
2018-12-09T00:58:10.268Z,0.00
2018-12-09T01:00:39.783Z,0.20
2018-12-09T01:03:09.242Z,0.40
2018-12-09T01:05:38.731Z,0.50
2018-12-09T01:08:08.193Z,0.70
2018-12-09T01:10:37.653Z,0.83
2018-12-09T01:15:42.203Z,0.60
2018-12-09T01:18:11.700Z,0.80
2018-12-09T01:20:41.155Z,0.37
2018-12-09T01:23:10.686Z,0.00
2018-12-09T01:25:40.160Z,0.00
2018-12-09T01:28:09.643Z,0.00
2018-12-09T01:30:39.101Z,0.50
2018-12-09T01:35:43.921Z,0.60
2018-12-09T01:41:07.605Z,0.40
2018-12-09T01:46:12.611Z,0.53
2018-12-09T01:51:17.223Z,0.90
2018-12-09T01:54:24.675Z,0.80
2018-12-09T01:56:54.131Z,0.70
2018-12-09T01:59:23.593Z,0.73
2018-12-09T02:01:53.092Z,0.80
2018-12-09T02:04:22.549Z,0.67
2018-12-09T02:06:51.998Z,0.47
2018-12-09T02:11:56.407Z,0.63
2018-12-09T02:14:28.298Z,0.40
2018-12-09T02:16:57.847Z,0.27
2018-12-09T02:19:27.874Z,0.30
2018-12-09T02:24:32.602Z,0.37
2018-12-09T02:27:02.161Z,0.30
2018-12-09T02:29:31.594Z,0.33
2018-12-09T02:32:01.040Z,0.50
2018-12-09T02:34:30.637Z,0.40
2018-12-09T02:36:59.984Z,0.27
2018-12-09T02:39:29.482Z,0.33
2018-12-09T02:44:34.914Z,0.70
2018-12-09T02:47:04.559Z,0.20
2018-12-09T02:49:34.025Z,0.10
2018-12-09T02:52:03.473Z,0.13
2018-12-09T02:57:08.067Z,0.27
2018-12-09T03:02:14.604Z,0.10
2018-12-09T03:07:18.828Z,0.10
2018-12-09T03:12:23.316Z,0.07
2018-12-09T03:14:52.834Z,0.03
2018-12-09T03:17:22.287Z,0.00
2018-12-09T03:19:51.778Z,0.00
2018-12-09T03:22:21.271Z,0.20
2018-12-09T03:24:50.708Z,0.10
2018-12-09T03:27:20.182Z,0.20
2018-12-09T03:29:49.687Z,0.10
2018-12-09T03:32:19.151Z,0.30
2018-12-09T03:34:48.610Z,0.10
2018-12-09T03:39:53.388Z,0.10
2018-12-09T03:44:58.405Z,0.00
2018-12-09T03:47:46.929Z,0.20
2018-12-09T03:50:16.374Z,0.97
2018-12-09T03:52:45.898Z,0.80
2018-12-09T03:58:09.472Z,0.20
2018-12-09T04:03:14.568Z,0.30
2018-12-09T04:08:19.766Z,0.70
2018-12-09T04:10:49.283Z,1.53
2018-12-09T04:13:18.753Z,1.07
2018-12-09T04:15:49.222Z,0.53
2018-12-09T04:20:52.674Z,0.50
2018-12-09T04:23:22.167Z,0.33
2018-12-09T04:25:51.629Z,0.53
2018-12-09T04:28:21.183Z,0.40
2018-12-09T04:33:25.993Z,0.70
2018-12-09T04:35:55.485Z,0.30
2018-12-09T04:38:25.048Z,1.70
2018-12-09T04:40:54.541Z,0.90
2018-12-09T04:43:26.691Z,0.67
2018-12-09T04:45:56.239Z,0.57
2018-12-09T04:48:25.667Z,0.53
2018-12-09T04:50:55.239Z,0.43
2018-12-09T04:53:24.720Z,0.30
2018-12-09T04:55:54.174Z,0.17
2018-12-09T04:58:23.951Z,0.10
2018-12-09T05:00:57.784Z,0.20
2018-12-09T05:03:27.386Z,0.10
2018-12-09T05:05:56.957Z,0.20
2018-12-09T05:08:26.414Z,0.00
2018-12-09T05:10:55.859Z,0.03
2018-12-09T05:13:25.586Z,0.00
2018-12-09T05:15:55.044Z,0.07
2018-12-09T05:18:24.606Z,0.00
2018-12-09T05:20:54.410Z,0.00
2018-12-09T05:23:23.862Z,0.10
2018-12-09T05:25:53.317Z,0.03
2018-12-09T05:28:22.864Z,0.10
2018-12-09T05:30:52.463Z,0.00
2018-12-09T05:33:22.210Z,0.00
2018-12-09T05:35:51.747Z,0.27
2018-12-09T05:38:21.243Z,0.13
2018-12-09T05:40:50.696Z,0.10
2018-12-09T05:43:20.364Z,0.30
2018-12-09T05:45:49.886Z,0.47
2018-12-09T05:48:19.448Z,0.90
2018-12-09T05:50:49.094Z,0.43
2018-12-09T05:53:18.573Z,0.60
2018-12-09T05:55:48.092Z,0.93
2018-12-09T05:58:19.332Z,0.90
2018-12-09T06:00:47.380Z,0.90
2018-12-09T06:03:16.830Z,0.60
2018-12-09T06:05:46.322Z,0.80
2018-12-09T06:08:15.803Z,0.50
2018-12-09T06:10:45.258Z,0.80
2018-12-09T06:13:14.934Z,0.50
2018-12-09T06:15:44.410Z,1.03
2018-12-09T06:18:13.872Z,0.60
2018-12-09T06:20:43.842Z,0.77
2018-12-09T06:23:13.309Z,0.77
2018-12-09T06:25:42.767Z,0.57
2018-12-09T06:28:12.572Z,0.97
2018-12-09T06:30:42.028Z,0.80
2018-12-09T06:33:11.487Z,0.63
2018-12-09T06:35:40.966Z,0.97
2018-12-09T06:38:10.417Z,0.83
2018-12-09T06:40:39.882Z,0.97
2018-12-09T06:43:09.370Z,1.10
2018-12-09T06:45:38.835Z,1.20
2018-12-09T06:48:08.283Z,1.00
2018-12-09T06:50:37.922Z,0.90
2018-12-09T06:53:07.363Z,1.53
2018-12-09T06:55:36.809Z,0.53
2018-12-09T06:58:06.427Z,0.70
2018-12-09T07:00:35.907Z,0.47
2018-12-09T07:03:39.299Z,1.23
2018-12-09T07:06:06.937Z,0.20
2018-12-09T07:08:34.471Z,0.33
2018-12-09T07:11:02.122Z,0.80
2018-12-09T07:13:29.626Z,0.40
2018-12-09T07:15:57.034Z,0.50
2018-12-09T07:18:24.654Z,0.10
2018-12-09T07:20:52.365Z,0.13
2018-12-09T07:23:19.871Z,0.33
2018-12-09T07:25:47.301Z,0.43
2018-12-09T07:28:14.687Z,0.53
2018-12-09T07:30:42.099Z,0.40
2018-12-09T07:33:09.820Z,0.67
2018-12-09T07:35:37.224Z,1.00
2018-12-09T07:38:04.625Z,0.80
2018-12-09T07:40:32.338Z,2.60
2018-12-09T07:42:59.796Z,0.80
2018-12-09T07:45:27.187Z,0.20
2018-12-09T07:47:54.703Z,0.27
2018-12-09T07:50:22.207Z,0.60
2018-12-09T07:52:49.908Z,0.43
2018-12-09T07:55:17.604Z,0.70
2018-12-09T07:57:44.995Z,0.90
2018-12-09T08:00:12.396Z,0.40
2018-12-09T08:02:39.889Z,0.43
2018-12-09T08:05:08.381Z,0.20
2018-12-09T08:07:35.837Z,0.23
2018-12-09T08:10:04.320Z,0.50
2018-12-09T08:12:31.700Z,0.50
2018-12-09T08:14:59.177Z,0.60
2018-12-09T08:17:26.684Z,0.70
2018-12-09T08:19:54.333Z,0.30
2018-12-09T08:22:21.844Z,0.63
2018-12-09T08:24:50.229Z,1.07
2018-12-09T08:27:18.049Z,0.30
2018-12-09T08:29:45.446Z,0.47
2018-12-09T08:32:13.076Z,0.60
2018-12-09T08:34:40.468Z,0.43
2018-12-09T08:37:07.876Z,0.43
2018-12-09T08:39:35.426Z,0.80
2018-12-09T08:42:02.888Z,0.60
2018-12-09T08:44:30.293Z,0.30
2018-12-09T08:46:58.628Z,0.43
2018-12-09T08:49:26.041Z,0.87
2018-12-09T08:51:53.447Z,1.20
2018-12-09T08:54:20.876Z,0.80
2018-12-09T08:56:48.680Z,0.80
2018-12-09T08:59:16.080Z,0.70
2018-12-09T09:01:43.826Z,0.80
2018-12-09T09:04:11.240Z,0.90
2018-12-09T09:06:39.557Z,1.07
2018-12-09T09:09:07.164Z,1.20
2018-12-09T09:11:34.564Z,1.00
2018-12-09T09:14:01.957Z,1.00
2018-12-09T09:16:29.820Z,0.70
2018-12-09T09:18:57.202Z,0.70
2018-12-09T09:21:24.592Z,0.70
2018-12-09T09:23:52.222Z,1.00
2018-12-09T09:26:19.668Z,0.70
2018-12-09T09:28:47.080Z,0.90
2018-12-09T09:31:14.595Z,0.90
2018-12-09T09:33:42.212Z,0.70
2018-12-09T09:36:09.608Z,0.80
2018-12-09T09:38:37.028Z,1.20
2018-12-09T09:41:04.968Z,1.50
2018-12-09T09:43:32.368Z,1.60
2018-12-09T09:45:59.839Z,0.60
2018-12-09T09:48:27.269Z,0.73
2018-12-09T09:50:54.752Z,0.77
2018-12-09T09:53:22.770Z,1.07
2018-12-09T09:55:50.168Z,0.97
2018-12-09T09:58:17.568Z,1.30
2018-12-09T10:00:44.991Z,0.60
2018-12-09T10:03:12.475Z,0.20
2018-12-09T10:05:39.889Z,0.40
2018-12-09T10:08:07.463Z,0.40
2018-12-09T10:10:34.988Z,0.20
2018-12-09T10:13:02.961Z,0.50
2018-12-09T10:15:30.395Z,0.40
2018-12-09T10:17:57.795Z,0.40
2018-12-09T10:20:25.927Z,0.47
2018-12-09T10:22:53.442Z,0.53
2018-12-09T10:25:21.233Z,0.40
2018-12-09T10:27:48.632Z,0.40
2018-12-09T10:30:16.099Z,0.50
2018-12-09T10:32:44.075Z,0.63
2018-12-09T10:35:11.614Z,0.10
2018-12-09T10:37:39.041Z,0.47
2018-12-09T10:40:07.183Z,0.20
2018-12-09T10:42:34.581Z,0.20
2018-12-09T10:45:03.135Z,0.40
2018-12-09T10:47:30.537Z,0.27
2018-12-09T10:49:57.925Z,0.30
2018-12-09T10:52:25.491Z,0.40
2018-12-09T10:54:52.919Z,0.40
2018-12-09T10:57:20.312Z,0.47
2018-12-09T10:59:47.751Z,0.50
2018-12-09T11:02:19.479Z,0.53
2018-12-09T11:04:47.233Z,0.90
2018-12-09T11:07:14.944Z,0.80
2018-12-09T11:09:42.440Z,0.73
2018-12-09T11:12:09.906Z,0.90
2018-12-09T11:14:37.408Z,1.10
2018-12-09T11:17:05.716Z,0.60
2018-12-09T11:19:33.123Z,1.23
2018-12-09T11:22:00.714Z,0.87
2018-12-09T11:24:28.216Z,1.13
2018-12-09T11:26:55.805Z,1.00
2018-12-09T11:29:23.245Z,1.27
2018-12-09T11:31:50.639Z,1.10
2018-12-09T11:34:18.529Z,0.87
2018-12-09T11:36:46.257Z,1.00
2018-12-09T11:39:13.645Z,1.33
2018-12-09T11:41:41.342Z,1.20
2018-12-09T11:44:08.951Z,1.10
2018-12-09T11:46:36.352Z,1.13
2018-12-09T11:49:03.839Z,1.17
2018-12-09T11:51:31.716Z,1.10
2018-12-09T11:53:59.417Z,1.17
2018-12-09T11:56:27.132Z,0.77
2018-12-09T11:58:54.749Z,1.37
2018-12-09T12:01:22.148Z,1.13
2018-12-09T12:03:49.547Z,0.73
2018-12-09T12:06:17.297Z,1.80
2018-12-09T12:08:44.697Z,1.30
2018-12-09T12:11:12.095Z,1.03
2018-12-09T12:13:39.647Z,1.50
2018-12-09T12:16:07.039Z,1.10
2018-12-09T12:18:35.057Z,1.10
2018-12-09T12:21:02.512Z,1.10
2018-12-09T12:23:29.913Z,1.20
2018-12-09T12:25:57.367Z,1.20
2018-12-09T12:28:25.116Z,0.93
2018-12-09T12:30:52.503Z,1.70
2018-12-09T12:33:19.916Z,1.70
2018-12-09T12:35:47.688Z,0.70
2018-12-09T12:38:15.093Z,0.70
2018-12-09T12:40:42.487Z,1.20
2018-12-09T12:43:10.263Z,1.43
2018-12-09T12:45:37.651Z,1.57
2018-12-09T12:48:05.935Z,1.20
2018-12-09T12:50:33.561Z,1.30
2018-12-09T12:53:00.955Z,1.10
2018-12-09T12:55:28.422Z,1.43
2018-12-09T12:57:56.123Z,1.03
2018-12-09T13:00:23.583Z,1.07
2018-12-09T13:02:51.464Z,1.37
2018-12-09T13:05:18.893Z,1.23
2018-12-09T13:07:46.349Z,1.10
2018-12-09T13:10:13.837Z,1.27
2018-12-09T13:12:41.385Z,1.20
2018-12-09T13:15:08.937Z,1.20
2018-12-09T13:17:36.401Z,1.00
2018-12-09T13:20:05.447Z,1.13
2018-12-09T13:22:32.891Z,1.67
2018-12-09T13:25:00.287Z,1.43
2018-12-09T13:27:28.069Z,1.30
2018-12-09T13:29:55.463Z,1.50
2018-12-09T13:32:22.877Z,1.83
2018-12-09T13:34:50.467Z,1.30
2018-12-09T13:37:18.583Z,1.10
2018-12-09T13:39:46.072Z,0.90
2018-12-09T13:42:13.842Z,1.47
2018-12-09T13:44:41.634Z,1.27
2018-12-09T13:47:09.025Z,1.40
2018-12-09T13:49:36.613Z,1.20
2018-12-09T13:52:04.004Z,1.30
2018-12-09T13:54:31.408Z,1.03
2018-12-09T13:56:59.156Z,1.13
2018-12-09T13:59:27.581Z,1.20
2018-12-09T14:01:55.156Z,1.30
2018-12-09T14:04:22.683Z,1.40
2018-12-09T14:06:50.094Z,1.50
2018-12-09T14:09:17.487Z,1.03
2018-12-09T14:11:44.995Z,0.90
2018-12-09T14:14:12.675Z,1.00
2018-12-09T14:16:40.089Z,1.00
2018-12-09T14:19:07.601Z,1.37
2018-12-09T14:21:35.293Z,0.90
2018-12-09T14:24:02.694Z,0.70
2018-12-09T14:26:30.513Z,1.07
2018-12-09T14:28:58.463Z,0.87
2018-12-09T14:31:27.723Z,0.67
2018-12-09T14:33:55.441Z,1.50
2018-12-09T14:36:24.186Z,1.10
2018-12-09T14:38:51.582Z,0.90
2018-12-09T14:41:19.151Z,0.90
2018-12-09T14:43:46.556Z,0.80
2018-12-09T14:46:13.998Z,0.90
2018-12-09T14:48:41.739Z,0.90
2018-12-09T14:51:09.543Z,0.80
2018-12-09T14:53:37.176Z,0.40
2018-12-09T14:56:04.809Z,0.60
2018-12-09T14:58:32.207Z,0.30
2018-12-09T15:01:00.001Z,0.63
2018-12-09T15:03:27.483Z,0.40
2018-12-09T15:05:54.875Z,0.40
2018-12-09T15:08:23.089Z,0.63
2018-12-09T15:10:50.789Z,0.17
2018-12-09T15:13:18.547Z,0.77
2018-12-09T15:15:45.947Z,0.60
2018-12-09T15:18:13.557Z,0.20
2018-12-09T15:20:41.761Z,0.90
2018-12-09T15:23:09.355Z,0.70
2018-12-09T15:25:36.855Z,0.93
2018-12-09T15:28:04.649Z,0.40
2018-12-09T15:30:32.047Z,0.53
2018-12-09T15:32:59.460Z,0.30
2018-12-09T15:35:26.860Z,0.30
2018-12-09T15:37:55.184Z,0.30
2018-12-09T15:40:22.635Z,0.40
2018-12-09T15:42:50.412Z,0.30
2018-12-09T15:45:18.212Z,0.73
2018-12-09T15:47:45.748Z,0.67
2018-12-09T15:50:13.156Z,1.30
2018-12-09T15:52:40.549Z,0.70
2018-12-09T15:55:08.164Z,1.20
2018-12-09T15:57:35.592Z,1.50
2018-12-09T16:00:04.290Z,1.00
2018-12-09T16:02:31.742Z,0.90
2018-12-09T16:04:59.149Z,0.43
2018-12-09T16:07:27.036Z,0.30
2018-12-09T16:09:54.684Z,0.60
2018-12-09T16:12:23.276Z,0.50
2018-12-09T16:14:50.672Z,0.90
2018-12-09T16:17:18.401Z,0.80
2018-12-09T16:19:46.049Z,0.67
2018-12-09T16:22:13.447Z,1.00
2018-12-09T16:24:41.033Z,0.60
2018-12-09T16:27:08.465Z,0.40
2018-12-09T16:29:35.855Z,0.97
2018-12-09T16:32:03.329Z,0.67
2018-12-09T16:34:30.726Z,0.60
2018-12-09T16:36:58.308Z,0.50
2018-12-09T16:39:25.850Z,1.00
2018-12-09T16:41:53.253Z,1.70
2018-12-09T16:44:21.233Z,1.43
2018-12-09T16:46:48.656Z,1.23
2018-12-09T16:49:16.052Z,1.40
2018-12-09T16:51:44.191Z,1.50
2018-12-09T16:54:11.741Z,1.87
2018-12-09T16:56:39.140Z,0.67
2018-12-09T16:59:06.918Z,0.50
2018-12-09T17:01:34.738Z,0.43
2018-12-09T17:04:02.133Z,0.40
2018-12-09T17:06:29.722Z,0.70
2018-12-09T17:08:57.433Z,1.10
2018-12-09T17:11:24.836Z,1.03
2018-12-09T17:13:52.623Z,0.20
2018-12-09T17:16:20.133Z,0.30
2018-12-09T17:18:47.531Z,0.20
2018-12-09T17:21:14.976Z,0.20
2018-12-09T17:23:42.557Z,0.60
2018-12-09T17:26:10.461Z,0.37
2018-12-09T17:28:38.156Z,0.30
2018-12-09T17:31:05.758Z,0.60
2018-12-09T17:33:33.158Z,0.30
2018-12-09T17:36:00.558Z,0.70
2018-12-09T17:38:27.979Z,0.40
2018-12-09T17:40:55.447Z,1.30
2018-12-09T17:43:23.671Z,0.43
2018-12-09T17:45:51.216Z,0.40
2018-12-09T17:48:18.623Z,0.50
2018-12-09T17:50:46.027Z,0.40
2018-12-09T17:53:13.451Z,0.73
2018-12-09T17:55:40.848Z,0.83
2018-12-09T17:58:08.268Z,1.00
2018-12-09T18:00:35.688Z,1.50
2018-12-09T18:03:03.074Z,0.97
2018-12-09T18:05:30.480Z,0.77
2018-12-09T18:07:58.212Z,0.43
2018-12-09T18:10:25.614Z,0.90
2018-12-09T18:12:53.084Z,0.77
2018-12-09T18:15:21.907Z,0.40
2018-12-09T18:17:49.306Z,0.83
2018-12-09T18:20:16.701Z,0.60
2018-12-09T18:22:44.338Z,0.43
2018-12-09T18:25:12.285Z,0.97
2018-12-09T18:27:39.687Z,1.20
2018-12-09T18:30:07.172Z,0.80
2018-12-09T18:32:35.298Z,0.73
2018-12-09T18:35:02.829Z,0.73
2018-12-09T18:37:30.285Z,1.00
2018-12-09T18:39:57.751Z,0.93
2018-12-09T18:42:25.151Z,0.70
2018-12-09T18:44:52.906Z,0.63
2018-12-09T18:47:20.336Z,0.40
2018-12-09T18:49:47.926Z,0.40
2018-12-09T18:52:15.392Z,0.50
2018-12-09T18:54:42.801Z,0.90
2018-12-09T18:57:10.333Z,1.90
2018-12-09T18:59:37.888Z,1.83
2018-12-09T19:02:05.421Z,3.37
2018-12-09T19:04:33.323Z,0.53
2018-12-09T19:07:00.877Z,2.27
2018-12-09T19:09:28.357Z,0.40
2018-12-09T19:11:56.113Z,0.60
2018-12-09T19:14:23.799Z,0.37
2018-12-09T19:16:51.382Z,0.53
2018-12-09T19:19:18.795Z,0.50
2018-12-09T19:21:46.291Z,0.20
2018-12-09T19:24:13.714Z,1.30
2018-12-09T19:26:41.160Z,0.70
2018-12-09T19:29:08.635Z,1.00
2018-12-09T19:31:36.055Z,1.10
2018-12-09T19:34:03.625Z,1.00
2018-12-09T19:36:31.166Z,0.93
2018-12-09T19:38:59.307Z,0.90
2018-12-09T19:41:26.735Z,0.40
2018-12-09T19:43:54.443Z,0.60
2018-12-09T19:46:21.850Z,0.40
2018-12-09T19:48:49.339Z,0.40
2018-12-09T19:51:16.975Z,0.17
2018-12-09T19:53:44.376Z,0.40
2018-12-09T19:56:12.499Z,0.30
2018-12-09T19:58:40.024Z,0.37
2018-12-09T20:01:07.439Z,0.30
2018-12-09T20:03:35.222Z,0.40
2018-12-09T20:06:02.919Z,0.30
2018-12-09T20:08:30.612Z,0.70
2018-12-09T20:10:58.024Z,0.30
2018-12-09T20:13:25.671Z,1.80
2018-12-09T20:15:53.169Z,0.40
2018-12-09T20:18:20.572Z,0.50
2018-12-09T20:20:48.159Z,0.50
2018-12-09T20:23:16.348Z,0.50
2018-12-09T20:25:44.040Z,0.23
2018-12-09T20:28:11.736Z,0.50
2018-12-09T20:30:39.244Z,1.10
2018-12-09T20:33:06.921Z,1.50
2018-12-09T20:35:34.498Z,0.90
2018-12-09T20:38:01.900Z,0.70
2018-12-09T20:40:29.363Z,0.30
2018-12-09T20:42:56.908Z,0.50
2018-12-09T20:45:24.304Z,0.50
2018-12-09T20:47:51.700Z,0.30
2018-12-09T20:50:19.373Z,0.50
2018-12-09T20:52:47.464Z,0.40
2018-12-09T20:55:14.893Z,0.60
2018-12-09T20:57:42.354Z,0.23
2018-12-09T21:00:09.880Z,0.33
2018-12-09T21:02:37.265Z,0.60
2018-12-09T21:05:05.141Z,0.47
2018-12-09T21:07:32.571Z,0.70
2018-12-09T21:09:59.958Z,0.40
2018-12-09T21:12:27.526Z,0.27
2018-12-09T21:14:54.929Z,1.03
2018-12-09T21:17:22.333Z,0.87
2018-12-09T21:19:49.785Z,0.30
2018-12-09T21:22:17.188Z,0.30
2018-12-09T21:24:44.744Z,0.30
2018-12-09T21:27:12.241Z,0.63
2018-12-09T21:29:39.629Z,0.70
2018-12-09T21:32:07.023Z,1.77
2018-12-09T21:34:34.617Z,1.97
2018-12-09T21:37:02.408Z,1.17
2018-12-09T21:39:29.810Z,0.70
2018-12-09T21:41:57.226Z,0.93
2018-12-09T21:44:25.153Z,1.33
2018-12-09T21:46:52.534Z,0.80
2018-12-09T21:49:21.177Z,1.10
2018-12-09T21:51:48.872Z,0.43
2018-12-09T21:54:16.379Z,0.40
2018-12-09T21:56:44.238Z,0.40
2018-12-09T21:59:11.731Z,0.40
2018-12-09T22:01:39.354Z,0.30
2018-12-09T22:04:06.805Z,0.33
2018-12-09T22:06:34.231Z,0.60
2018-12-09T22:09:02.055Z,0.53
2018-12-09T22:11:29.648Z,0.60
2018-12-09T22:13:57.239Z,2.27
2018-12-09T22:16:24.689Z,0.60
2018-12-09T22:18:52.143Z,0.40
2018-12-09T22:21:20.295Z,0.30
2018-12-09T22:23:47.688Z,0.40
2018-12-09T22:26:15.515Z,0.30
2018-12-09T22:28:42.912Z,0.40
2018-12-09T22:31:10.403Z,0.40
2018-12-09T22:33:37.883Z,0.30
2018-12-09T22:36:05.587Z,0.40
2018-12-09T22:38:33.275Z,0.40
2018-12-09T22:41:00.869Z,0.83
2018-12-09T22:43:28.257Z,0.50
2018-12-09T22:45:56.111Z,0.50
2018-12-09T22:48:23.583Z,0.30
2018-12-09T22:50:50.980Z,0.40
2018-12-09T22:53:18.377Z,0.30
2018-12-09T22:55:46.653Z,0.20
2018-12-09T22:58:14.170Z,0.30
2018-12-09T23:00:45.241Z,0.30
2018-12-09T23:03:12.833Z,0.40
2018-12-09T23:05:40.331Z,0.47
2018-12-09T23:08:08.075Z,0.50
2018-12-09T23:10:36.496Z,0.40
2018-12-09T23:13:03.959Z,0.63
2018-12-09T23:15:31.416Z,0.40
2018-12-09T23:17:58.869Z,0.43
2018-12-09T23:20:26.390Z,0.50
2018-12-09T23:22:53.987Z,1.43
2018-12-09T23:25:21.426Z,1.77
2018-12-09T23:27:48.823Z,0.70
2018-12-09T23:30:17.023Z,0.60
2018-12-09T23:32:44.580Z,0.73
2018-12-09T23:35:11.967Z,0.77
2018-12-09T23:37:39.367Z,0.70
2018-12-09T23:40:07.199Z,0.53
2018-12-09T23:42:34.606Z,0.77
2018-12-09T23:45:02.067Z,0.90
2018-12-09T23:47:29.487Z,0.70
2018-12-09T23:49:56.983Z,0.93
2018-12-09T23:52:24.379Z,0.30
2018-12-09T23:54:51.958Z,0.87
2018-12-09T23:57:19.506Z,2.60
2018-12-09T23:59:46.903Z,2.93
